createdAt,value
2023-10-03T16:09:51.344Z,44.68
2023-10-03T16:12:20.536Z,45.01
2023-10-03T16:14:48.472Z,45.08
2023-10-03T16:17:16.556Z,45.28
2023-10-03T16:19:45.669Z,45.89
2023-10-03T16:22:12.932Z,45.94
2023-10-03T16:24:42.311Z,45.80
2023-10-03T16:27:10.162Z,45.83
2023-10-03T16:29:37.497Z,46.00
2023-10-03T16:32:05.818Z,46.52
2023-10-03T16:34:33.235Z,46.56
2023-10-03T16:37:01.771Z,46.69
2023-10-03T16:39:30.180Z,46.75
2023-10-03T16:42:00.945Z,46.92
2023-10-03T16:44:28.323Z,47.65
2023-10-03T16:46:55.605Z,47.21
2023-10-03T16:49:22.880Z,46.92
2023-10-03T16:51:51.155Z,47.66
2023-10-03T16:54:18.795Z,47.72
2023-10-03T16:56:46.218Z,48.04
2023-10-03T16:59:13.766Z,48.45
2023-10-03T17:01:41.339Z,48.75
2023-10-03T17:04:08.653Z,48.95
2023-10-03T17:06:36.033Z,49.16
2023-10-03T17:09:04.273Z,49.40
2023-10-03T17:11:32.210Z,49.91
2023-10-03T17:14:00.478Z,49.97
2023-10-03T17:16:27.830Z,49.99
2023-10-03T17:18:55.099Z,50.49
2023-10-03T17:21:22.382Z,50.75
2023-10-03T17:23:49.723Z,50.44
2023-10-03T17:26:18.410Z,51.44
2023-10-03T17:28:46.949Z,51.56
2023-10-03T17:31:14.580Z,52.39
2023-10-03T17:33:43.102Z,52.72
2023-10-03T17:36:10.537Z,52.63
2023-10-03T17:38:37.969Z,53.01
2023-10-03T17:41:06.654Z,53.51
2023-10-03T17:43:35.791Z,53.76
2023-10-03T17:46:04.038Z,54.04
2023-10-03T17:48:31.636Z,56.65
2023-10-03T17:50:59.289Z,58.53
2023-10-03T17:53:28.274Z,59.63
2023-10-03T17:55:56.116Z,59.89
2023-10-03T17:58:23.285Z,60.42
2023-10-03T18:00:51.112Z,61.14
2023-10-03T18:03:18.741Z,61.37
2023-10-03T18:05:46.127Z,61.38
2023-10-03T18:08:13.326Z,61.62
2023-10-03T18:10:41.041Z,61.67
2023-10-03T18:13:08.868Z,60.47
2023-10-03T18:15:41.073Z,59.79
2023-10-03T18:18:11.103Z,59.77
2023-10-03T18:20:39.044Z,60.01
2023-10-03T18:23:06.507Z,59.62
2023-10-03T18:25:34.818Z,59.52
2023-10-03T18:28:02.735Z,59.24
2023-10-03T18:30:30.801Z,59.50
2023-10-03T18:33:01.374Z,59.86
2023-10-03T18:35:29.264Z,53.78
2023-10-03T18:37:56.852Z,54.77
2023-10-03T18:40:24.766Z,54.53
2023-10-03T18:42:54.319Z,54.29
2023-10-03T18:45:22.882Z,54.36
2023-10-03T18:47:52.767Z,54.96
2023-10-03T18:50:24.845Z,55.11
2023-10-03T18:52:59.752Z,55.34
2023-10-03T18:55:27.962Z,56.74
2023-10-03T18:58:07.693Z,57.57
2023-10-03T19:00:37.847Z,57.46
2023-10-03T19:03:08.051Z,57.35
2023-10-03T19:05:42.286Z,58.04
2023-10-03T19:08:34.934Z,57.52
2023-10-03T19:11:13.023Z,57.27
2023-10-03T19:13:56.029Z,56.17
2023-10-03T19:16:28.207Z,56.49
2023-10-03T19:19:09.389Z,57.03
2023-10-03T19:21:43.131Z,56.50
2023-10-03T19:24:18.681Z,56.46
2023-10-03T19:26:50.726Z,57.36
2023-10-03T19:29:20.693Z,57.43
2023-10-03T19:31:51.743Z,57.89
2023-10-03T19:34:45.075Z,58.25
2023-10-03T19:37:19.957Z,59.67
2023-10-03T19:39:50.806Z,60.61
2023-10-03T19:42:20.884Z,61.04
2023-10-03T19:44:57.649Z,61.79
2023-10-03T19:47:29.181Z,62.15
2023-10-03T19:49:57.126Z,62.37
2023-10-03T19:52:36.327Z,63.06
2023-10-03T19:55:08.822Z,63.42
2023-10-03T19:57:41.345Z,63.64
2023-10-03T20:01:12.325Z,64.04
2023-10-03T20:03:24.246Z,64.28
2023-10-03T20:05:55.841Z,64.29
2023-10-03T20:08:23.461Z,64.40
2023-10-03T20:10:56.053Z,64.38
2023-10-03T20:13:26.255Z,64.52
2023-10-03T20:15:54.588Z,65.05
2023-10-03T20:18:24.053Z,65.09
2023-10-03T20:20:53.900Z,65.13
2023-10-03T20:23:22.086Z,62.90
2023-10-03T20:25:53.577Z,62.13
2023-10-03T20:28:43.415Z,61.85
2023-10-03T20:31:17.732Z,62.26
2023-10-03T20:33:52.567Z,61.07
2023-10-03T20:36:26.377Z,60.87
2023-10-03T20:39:08.995Z,59.15
2023-10-03T20:41:48.666Z,58.97
2023-10-03T20:44:24.695Z,59.33
2023-10-03T20:47:15.378Z,58.41
2023-10-03T20:49:58.753Z,59.88
2023-10-03T20:53:16.930Z,60.71
2023-10-03T20:55:40.615Z,64.16
2023-10-03T20:58:23.843Z,66.14
2023-10-03T21:01:34.291Z,65.86
2023-10-03T21:04:19.678Z,66.43
2023-10-03T21:09:30.828Z,65.53
2023-10-03T21:10:22.928Z,65.61
2023-10-03T21:32:19.437Z,66.77
2023-10-03T21:35:41.524Z,68.77
2023-10-03T21:38:32.857Z,68.16
2023-10-03T21:58:33.540Z,70.48
2023-10-03T22:01:03.204Z,69.95
2023-10-03T22:03:32.942Z,70.15
2023-10-03T22:06:01.048Z,69.72
2023-10-03T22:11:13.915Z,70.49
2023-10-03T22:13:42.856Z,70.46
2023-10-03T22:16:10.153Z,69.86
2023-10-03T22:18:39.093Z,69.59
2023-10-03T22:21:08.972Z,69.99
2023-10-03T22:23:36.324Z,69.54
2023-10-03T22:26:03.875Z,69.68
2023-10-03T22:28:31.207Z,69.03
2023-10-03T22:30:58.498Z,68.52
2023-10-03T22:33:25.741Z,69.10
2023-10-03T22:35:53.258Z,69.58
2023-10-03T22:38:24.472Z,69.37
2023-10-03T22:40:52.100Z,69.30
2023-10-03T22:43:20.646Z,68.95
2023-10-03T22:45:47.972Z,68.49
2023-10-03T22:48:15.298Z,68.32
2023-10-03T22:50:42.760Z,69.39
2023-10-03T22:53:11.366Z,69.12
2023-10-03T22:55:39.718Z,68.55
2023-10-03T22:58:07.074Z,68.52
2023-10-03T23:00:34.588Z,69.17
2023-10-03T23:03:01.981Z,68.50
2023-10-03T23:05:29.991Z,68.68
2023-10-03T23:07:57.238Z,68.64
2023-10-03T23:10:24.961Z,68.21
2023-10-03T23:12:52.492Z,68.24
2023-10-03T23:15:22.163Z,68.08
2023-10-03T23:17:49.604Z,67.76
2023-10-03T23:20:16.914Z,68.13
2023-10-03T23:22:44.412Z,68.56
2023-10-03T23:25:13.203Z,68.72
2023-10-03T23:27:41.025Z,67.98
2023-10-03T23:30:08.868Z,68.30
2023-10-03T23:32:36.283Z,69.10
2023-10-03T23:35:03.691Z,69.10
2023-10-03T23:37:33.534Z,68.89
2023-10-03T23:40:06.174Z,69.27
2023-10-03T23:42:33.959Z,69.27
2023-10-03T23:45:02.072Z,69.04
2023-10-03T23:47:30.415Z,69.04
2023-10-03T23:50:00.739Z,69.28
2023-10-03T23:52:27.991Z,69.00
2023-10-03T23:54:58.114Z,67.82
2023-10-03T23:57:28.172Z,68.17
2023-10-03T23:59:55.555Z,68.13
